createdAt,value
2022-12-25T00:02:16.810Z,9.30
2022-12-25T00:04:43.787Z,8.90
2022-12-25T00:07:10.531Z,9.40
2022-12-25T00:09:37.214Z,8.30
2022-12-25T00:12:03.862Z,10.80
2022-12-25T00:14:30.557Z,9.50
2022-12-25T00:16:57.330Z,8.70
2022-12-25T00:19:23.963Z,8.20
2022-12-25T00:21:50.654Z,7.80
2022-12-25T00:24:17.419Z,8.00
2022-12-25T00:26:44.263Z,7.50
2022-12-25T00:29:12.992Z,8.30
2022-12-25T00:31:39.781Z,7.20
2022-12-25T00:34:06.494Z,6.70
2022-12-25T00:36:39.529Z,6.80
2022-12-25T00:39:08.315Z,6.30
2022-12-25T00:41:53.870Z,7.00
2022-12-25T00:44:20.612Z,6.00
2022-12-25T00:46:47.373Z,6.40
2022-12-25T00:49:14.188Z,6.80
2022-12-25T00:51:40.882Z,6.60
2022-12-25T00:54:08.236Z,7.30
2022-12-25T00:56:34.942Z,6.60
2022-12-25T00:59:01.727Z,6.60
2022-12-25T01:01:28.441Z,5.90
2022-12-25T01:03:56.025Z,6.90
2022-12-25T01:06:22.758Z,6.20
2022-12-25T01:09:07.881Z,6.00
2022-12-25T01:11:34.546Z,6.40
2022-12-25T01:14:01.853Z,5.80
2022-12-25T01:16:29.255Z,5.90
2022-12-25T01:18:56.198Z,6.20
2022-12-25T01:21:23.213Z,5.60
2022-12-25T01:23:52.524Z,6.40
2022-12-25T01:26:21.683Z,6.50
2022-12-25T01:28:49.893Z,6.20
2022-12-25T01:31:19.714Z,6.50
2022-12-25T01:33:46.629Z,6.50
2022-12-25T01:36:25.949Z,6.10
2022-12-25T01:38:54.108Z,6.40
2022-12-25T01:41:23.913Z,6.10
2022-12-25T01:44:07.709Z,5.90
2022-12-25T01:46:35.797Z,5.90
2022-12-25T01:49:08.143Z,6.10
2022-12-25T01:51:49.799Z,6.20
2022-12-25T01:54:21.641Z,5.80
2022-12-25T01:56:51.708Z,6.20
2022-12-25T01:59:21.201Z,6.30
2022-12-25T02:01:48.894Z,5.60
2022-12-25T02:04:40.898Z,6.10
2022-12-25T02:07:13.388Z,6.30
2022-12-25T02:09:40.377Z,6.20
2022-12-25T02:12:09.616Z,6.60
2022-12-25T02:14:37.825Z,6.90
2022-12-25T02:17:19.186Z,6.70
2022-12-25T02:19:55.055Z,6.40
2022-12-25T02:22:56.013Z,6.50
2022-12-25T02:25:31.633Z,6.10
2022-12-25T02:28:07.122Z,6.90
2022-12-25T02:30:46.386Z,5.90
2022-12-25T02:33:37.047Z,6.10
2022-12-25T02:36:07.577Z,5.70
2022-12-25T02:38:39.180Z,5.10
2022-12-25T02:41:13.742Z,5.10
2022-12-25T02:44:03.361Z,5.70
2022-12-25T02:46:51.990Z,6.10
2022-12-25T02:49:42.777Z,5.00
2022-12-25T02:52:32.183Z,5.70
2022-12-25T02:55:29.116Z,5.80
2022-12-25T02:58:26.693Z,5.40
2022-12-25T03:01:18.428Z,5.80
2022-12-25T03:04:07.452Z,5.60
2022-12-25T03:06:46.853Z,5.20
2022-12-25T03:09:40.053Z,4.80
2022-12-25T03:13:03.414Z,4.50
2022-12-25T03:15:50.740Z,4.40
2022-12-25T03:18:24.315Z,5.00
2022-12-25T03:21:10.921Z,5.00
2022-12-25T03:23:59.437Z,4.50
2022-12-25T03:26:46.218Z,4.30
2022-12-25T03:29:32.931Z,4.40
2022-12-25T03:32:32.231Z,4.30
2022-12-25T03:35:23.892Z,5.50
2022-12-25T03:38:09.309Z,5.00
2022-12-25T03:41:21.005Z,4.50
2022-12-25T03:44:24.256Z,4.80
2022-12-25T03:47:35.451Z,4.50
2022-12-25T03:50:31.179Z,4.20
2022-12-25T03:53:20.461Z,4.30
2022-12-25T03:56:07.737Z,4.20
2022-12-25T03:58:53.013Z,4.50
2022-12-25T04:01:38.441Z,5.00
2022-12-25T04:04:24.262Z,4.20
2022-12-25T04:07:09.755Z,4.10
2022-12-25T04:09:55.300Z,4.40
2022-12-25T04:12:40.671Z,3.60
2022-12-25T04:15:26.648Z,4.10
2022-12-25T04:18:11.860Z,4.50
2022-12-25T04:20:57.245Z,3.90
2022-12-25T04:23:42.589Z,5.00
2022-12-25T04:26:28.154Z,5.00
2022-12-25T04:29:13.650Z,4.80
2022-12-25T04:31:59.137Z,4.60
2022-12-25T04:34:44.371Z,4.10
2022-12-25T04:37:11.257Z,3.60
2022-12-25T04:39:38.018Z,3.90
2022-12-25T04:42:04.741Z,4.30
2022-12-25T04:44:31.463Z,4.60
2022-12-25T04:46:58.129Z,4.00
2022-12-25T04:49:24.868Z,5.60
2022-12-25T04:51:51.656Z,7.40
2022-12-25T04:54:18.660Z,5.70
2022-12-25T04:56:46.189Z,5.60
2022-12-25T04:59:13.174Z,4.00
2022-12-25T05:01:40.513Z,4.10
2022-12-25T05:04:07.812Z,3.70
2022-12-25T05:06:34.653Z,4.80
2022-12-25T05:09:01.410Z,3.90
2022-12-25T05:11:28.193Z,3.70
2022-12-25T05:13:54.864Z,3.90
2022-12-25T05:16:22.009Z,4.20
2022-12-25T05:18:50.917Z,4.00
2022-12-25T05:21:18.762Z,4.50
2022-12-25T05:23:51.547Z,6.00
2022-12-25T05:26:23.982Z,6.40
2022-12-25T05:28:51.091Z,4.80
2022-12-25T05:31:19.530Z,4.40
2022-12-25T05:33:49.990Z,4.70
2022-12-25T05:36:17.600Z,4.10
2022-12-25T05:38:44.364Z,4.60
2022-12-25T05:41:11.337Z,4.20
2022-12-25T05:43:38.042Z,4.80
2022-12-25T05:46:07.264Z,7.30
2022-12-25T05:48:36.903Z,7.20
2022-12-25T05:51:08.822Z,4.80
2022-12-25T05:53:36.549Z,5.60
2022-12-25T05:56:06.375Z,4.20
2022-12-25T05:58:35.345Z,4.00
2022-12-25T06:01:02.394Z,3.80
2022-12-25T06:03:29.567Z,3.60
2022-12-25T06:05:56.916Z,3.40
2022-12-25T06:08:23.671Z,3.60
2022-12-25T06:10:50.458Z,3.60
2022-12-25T06:13:17.253Z,3.50
2022-12-25T06:15:44.063Z,3.00
2022-12-25T06:18:10.885Z,3.40
2022-12-25T06:20:41.309Z,3.60
2022-12-25T06:23:08.058Z,3.00
2022-12-25T06:25:35.120Z,3.10
2022-12-25T06:28:01.808Z,3.00
2022-12-25T06:30:28.538Z,3.10
2022-12-25T06:32:55.243Z,3.20
2022-12-25T06:35:21.995Z,3.00
2022-12-25T06:37:48.811Z,3.20
2022-12-25T06:40:15.648Z,3.60
2022-12-25T06:42:42.310Z,3.60
2022-12-25T06:45:10.149Z,3.30
2022-12-25T06:47:37.862Z,4.30
2022-12-25T06:50:06.341Z,4.10
2022-12-25T06:52:33.744Z,3.30
2022-12-25T06:55:00.663Z,3.60
2022-12-25T06:57:27.339Z,3.70
2022-12-25T06:59:55.550Z,3.70
2022-12-25T07:02:24.468Z,3.80
2022-12-25T07:04:52.363Z,3.10
2022-12-25T07:07:19.450Z,3.60
2022-12-25T07:09:46.193Z,3.80
2022-12-25T07:12:21.038Z,4.00
2022-12-25T07:14:50.462Z,4.10
2022-12-25T07:17:18.320Z,3.10
2022-12-25T07:19:46.725Z,3.00
2022-12-25T07:22:14.708Z,3.70
2022-12-25T07:24:41.693Z,4.20
2022-12-25T07:27:08.552Z,3.90
2022-12-25T07:29:35.427Z,2.90
2022-12-25T07:32:02.275Z,3.60
2022-12-25T07:34:29.156Z,3.70
2022-12-25T07:36:55.889Z,3.20
2022-12-25T07:39:23.960Z,3.90
2022-12-25T07:41:51.392Z,3.40
2022-12-25T07:44:18.232Z,3.20
2022-12-25T07:46:45.324Z,3.20
2022-12-25T07:49:12.996Z,5.20
2022-12-25T07:51:39.889Z,4.20
2022-12-25T07:54:06.625Z,3.90
2022-12-25T07:56:33.408Z,5.00
2022-12-25T07:59:00.359Z,4.90
2022-12-25T08:01:28.700Z,8.00
2022-12-25T08:04:02.052Z,5.10
2022-12-25T08:06:34.601Z,4.90
2022-12-25T08:09:10.014Z,5.30
2022-12-25T08:11:37.716Z,5.00
2022-12-25T08:14:09.193Z,4.20
2022-12-25T08:16:39.910Z,3.70
2022-12-25T08:19:08.079Z,4.20
2022-12-25T08:21:34.849Z,4.70
2022-12-25T08:24:05.067Z,3.80
2022-12-25T08:26:32.160Z,4.00
2022-12-25T08:28:58.935Z,4.40
2022-12-25T08:31:28.561Z,4.20
2022-12-25T08:33:57.991Z,4.00
2022-12-25T08:36:25.905Z,4.20
2022-12-25T08:38:56.983Z,4.20
2022-12-25T08:41:27.855Z,4.40
2022-12-25T08:43:54.851Z,4.90
2022-12-25T08:46:21.973Z,4.50
2022-12-25T08:48:49.935Z,4.70
2022-12-25T08:51:19.526Z,4.60
2022-12-25T08:53:48.404Z,4.40
2022-12-25T08:56:16.174Z,4.90
2022-12-25T08:58:43.426Z,4.30
2022-12-25T09:01:10.975Z,5.80
2022-12-25T09:03:38.033Z,4.60
2022-12-25T09:06:07.783Z,4.50
2022-12-25T09:08:36.033Z,5.10
2022-12-25T09:11:04.815Z,4.90
2022-12-25T09:13:35.583Z,4.70
2022-12-25T09:16:10.598Z,6.80
2022-12-25T09:18:37.501Z,10.50
2022-12-25T09:21:07.430Z,11.80
2022-12-25T09:23:34.797Z,7.50
2022-12-25T09:26:03.449Z,9.30
2022-12-25T09:28:30.504Z,8.90
2022-12-25T09:30:57.381Z,7.70
2022-12-25T09:33:24.514Z,8.00
2022-12-25T09:36:00.303Z,9.20
2022-12-25T09:38:28.497Z,9.10
2022-12-25T09:41:05.626Z,8.20
2022-12-25T09:43:37.719Z,7.30
2022-12-25T09:48:35.349Z,8.00
2022-12-25T09:51:13.350Z,8.30
2022-12-25T09:53:50.507Z,9.10
2022-12-25T09:56:25.591Z,10.20
2022-12-25T09:58:53.746Z,11.10
2022-12-25T10:01:33.368Z,10.00
2022-12-25T10:04:27.989Z,9.50
2022-12-25T10:07:19.495Z,9.80
2022-12-25T10:10:07.154Z,8.50
2022-12-25T10:12:49.465Z,9.30
2022-12-25T10:15:50.764Z,9.70
2022-12-25T10:18:38.620Z,9.10
2022-12-25T10:21:13.036Z,8.10
2022-12-25T10:23:53.356Z,8.60
2022-12-25T10:26:25.160Z,8.20
2022-12-25T10:29:14.871Z,8.10
2022-12-25T10:31:45.507Z,7.40
2022-12-25T10:34:14.687Z,7.10
2022-12-25T10:36:45.967Z,8.50
2022-12-25T10:39:18.727Z,7.10
2022-12-25T10:42:10.946Z,7.10
2022-12-25T10:44:37.966Z,6.80
2022-12-25T10:47:05.323Z,6.50
2022-12-25T10:49:36.236Z,6.70
2022-12-25T10:52:04.143Z,6.10
2022-12-25T10:54:35.957Z,6.90
2022-12-25T10:57:18.817Z,9.40
2022-12-25T10:59:56.886Z,8.40
2022-12-25T11:05:10.946Z,5.60
2022-12-25T11:07:50.925Z,5.60
2022-12-25T11:10:35.480Z,6.00
2022-12-25T11:13:03.734Z,6.20
2022-12-25T11:15:45.816Z,6.00
2022-12-25T11:18:23.154Z,6.00
2022-12-25T11:20:50.678Z,7.00
2022-12-25T11:23:20.379Z,6.80
2022-12-25T11:26:05.649Z,9.70
2022-12-25T11:28:35.183Z,7.60
2022-12-25T11:31:07.862Z,7.50
2022-12-25T11:33:38.807Z,9.50
2022-12-25T11:36:17.910Z,10.10
2022-12-25T11:38:44.898Z,8.20
2022-12-25T11:41:12.938Z,8.70
2022-12-25T11:43:46.904Z,9.70
2022-12-25T11:46:20.179Z,9.20
2022-12-25T11:49:04.919Z,9.00
2022-12-25T11:51:38.691Z,16.50
2022-12-25T11:54:30.274Z,12.10
2022-12-25T11:57:00.299Z,10.80
2022-12-25T11:59:35.078Z,9.70
2022-12-25T12:02:28.898Z,9.30
2022-12-25T12:05:08.230Z,8.60
2022-12-25T12:07:37.643Z,9.90
2022-12-25T12:10:04.429Z,9.40
2022-12-25T12:12:38.100Z,8.20
2022-12-25T12:15:12.503Z,9.20
2022-12-25T12:17:39.205Z,8.50
2022-12-25T12:20:29.950Z,12.00
2022-12-25T12:22:57.759Z,8.60
2022-12-25T12:25:24.979Z,10.00
2022-12-25T12:28:05.529Z,8.60
2022-12-25T12:30:35.807Z,10.40
2022-12-25T12:33:06.625Z,10.80
2022-12-25T12:35:40.201Z,10.30
2022-12-25T12:38:15.238Z,10.20
2022-12-25T12:40:55.037Z,11.50
2022-12-25T12:43:56.757Z,10.30
2022-12-25T12:46:31.501Z,10.40
2022-12-25T12:49:32.861Z,8.60
2022-12-25T12:52:05.734Z,10.80
2022-12-25T12:54:32.795Z,9.00
2022-12-25T12:57:02.532Z,8.90
2022-12-25T12:59:40.059Z,9.30
2022-12-25T13:02:39.687Z,10.10
2022-12-25T13:05:30.546Z,9.80
2022-12-25T13:08:19.680Z,11.00
2022-12-25T13:11:03.103Z,8.60
2022-12-25T13:13:39.077Z,10.00
2022-12-25T13:16:12.871Z,11.50
2022-12-25T13:18:40.189Z,14.00
2022-12-25T13:21:07.581Z,19.20
2022-12-25T13:23:36.776Z,14.00
2022-12-25T13:26:06.825Z,12.70
2022-12-25T13:28:36.560Z,10.60
2022-12-25T13:31:21.363Z,12.40
2022-12-25T13:34:22.120Z,14.50
2022-12-25T13:36:49.424Z,11.20
2022-12-25T13:39:18.040Z,11.40
2022-12-25T13:42:06.870Z,10.80
2022-12-25T13:44:39.577Z,8.30
2022-12-25T13:47:18.595Z,10.30
2022-12-25T13:49:46.348Z,11.60
2022-12-25T13:52:15.744Z,9.30
2022-12-25T13:55:14.555Z,11.80
2022-12-25T13:57:46.030Z,10.30
2022-12-25T14:00:22.010Z,11.40
2022-12-25T14:02:49.846Z,11.70
2022-12-25T14:05:39.792Z,11.70
2022-12-25T14:08:24.381Z,10.80
2022-12-25T14:10:54.269Z,10.60
2022-12-25T14:13:25.817Z,11.90
2022-12-25T14:15:53.661Z,11.00
2022-12-25T14:18:22.660Z,10.60
2022-12-25T14:21:08.562Z,10.10
2022-12-25T14:23:43.013Z,11.60
2022-12-25T14:26:21.024Z,10.10
2022-12-25T14:31:33.779Z,9.70
2022-12-25T14:34:03.083Z,10.80
2022-12-25T14:36:31.413Z,10.20
2022-12-25T14:39:00.197Z,10.50
2022-12-25T14:41:37.716Z,10.90
2022-12-25T14:44:26.755Z,10.20
2022-12-25T14:47:12.948Z,10.40
2022-12-25T14:49:39.635Z,10.50
2022-12-25T14:52:23.946Z,12.30
2022-12-25T14:54:57.936Z,11.10
2022-12-25T14:57:28.810Z,11.90
2022-12-25T15:00:01.835Z,11.50
2022-12-25T15:02:37.759Z,11.50
2022-12-25T15:05:04.913Z,11.30
2022-12-25T15:07:32.007Z,11.10
2022-12-25T15:10:25.634Z,12.10
2022-12-25T15:12:45.654Z,11.20
2022-12-25T15:15:12.486Z,11.80
2022-12-25T15:17:39.186Z,11.00
2022-12-25T15:20:09.015Z,12.10
2022-12-25T15:23:02.415Z,11.20
2022-12-25T15:25:22.535Z,10.40
2022-12-25T15:27:49.539Z,11.70
2022-12-25T15:30:16.605Z,11.60
2022-12-25T15:32:43.322Z,11.60
2022-12-25T15:35:19.604Z,11.90
2022-12-25T15:37:47.131Z,13.30
2022-12-25T15:40:16.257Z,12.30
2022-12-25T15:42:44.985Z,12.40
2022-12-25T15:45:23.016Z,13.10
2022-12-25T15:47:49.963Z,11.90
2022-12-25T15:50:17.843Z,13.10
2022-12-25T15:52:45.492Z,13.10
2022-12-25T15:55:13.422Z,13.30
2022-12-25T15:57:44.817Z,15.50
2022-12-25T16:00:23.334Z,14.40
2022-12-25T16:02:50.376Z,14.30
2022-12-25T16:05:17.457Z,20.20
2022-12-25T16:07:44.349Z,18.70
2022-12-25T16:10:18.580Z,16.00
2022-12-25T16:12:45.675Z,14.90
2022-12-25T16:15:14.529Z,16.00
2022-12-25T16:17:42.138Z,15.50
2022-12-25T16:20:09.853Z,17.10
2022-12-25T16:22:40.066Z,22.20
2022-12-25T16:25:13.462Z,22.10
2022-12-25T16:27:40.640Z,18.90
2022-12-25T16:30:08.038Z,19.50
2022-12-25T16:32:34.731Z,19.60
2022-12-25T16:35:01.536Z,19.20
2022-12-25T16:37:28.279Z,16.80
2022-12-25T16:39:54.887Z,16.80
2022-12-25T16:42:21.546Z,15.50
2022-12-25T16:44:48.257Z,14.00
2022-12-25T16:47:14.896Z,14.50
2022-12-25T16:49:41.551Z,14.70
2022-12-25T16:52:08.207Z,13.40
2022-12-25T16:54:34.871Z,13.40
2022-12-25T16:57:01.669Z,12.70
2022-12-25T16:59:29.297Z,14.70
2022-12-25T17:01:56.066Z,14.90
2022-12-25T17:04:22.986Z,15.30
2022-12-25T17:06:49.737Z,14.50
2022-12-25T17:09:16.517Z,14.20
2022-12-25T17:11:43.197Z,14.10
2022-12-25T17:14:10.849Z,14.60
2022-12-25T17:16:38.535Z,15.00
2022-12-25T17:19:09.845Z,15.70
2022-12-25T17:21:38.519Z,16.20
2022-12-25T17:24:06.053Z,14.40
2022-12-25T17:26:33.837Z,13.30
2022-12-25T17:29:00.864Z,13.30
2022-12-25T17:31:28.247Z,14.50
2022-12-25T17:33:54.937Z,15.30
2022-12-25T17:36:22.867Z,14.10
2022-12-25T17:38:49.920Z,13.40
2022-12-25T17:41:19.129Z,14.10
2022-12-25T17:43:47.193Z,15.50
2022-12-25T17:46:25.745Z,15.00
2022-12-25T17:48:54.779Z,15.70
2022-12-25T17:51:24.150Z,16.10
2022-12-25T17:53:53.852Z,16.00
2022-12-25T17:56:21.800Z,16.60
2022-12-25T17:58:53.720Z,20.20
2022-12-25T18:01:21.919Z,18.40
2022-12-25T18:03:50.200Z,13.70
2022-12-25T18:06:20.531Z,14.60
2022-12-25T18:08:48.118Z,14.70
2022-12-25T18:11:19.148Z,17.10
2022-12-25T18:13:48.569Z,15.50
2022-12-25T18:16:17.394Z,15.80
2022-12-25T18:18:51.485Z,13.40
2022-12-25T18:21:22.705Z,14.00
2022-12-25T18:23:50.390Z,12.10
2022-12-25T18:26:18.206Z,12.50
2022-12-25T18:28:45.064Z,23.20
2022-12-25T18:31:20.217Z,15.90
2022-12-25T18:33:47.454Z,12.60
2022-12-25T18:36:17.504Z,11.70
2022-12-25T18:38:44.286Z,11.40
2022-12-25T18:41:11.806Z,10.80
2022-12-25T18:43:52.402Z,12.20
2022-12-25T18:46:26.441Z,13.30
2022-12-25T18:48:57.595Z,11.80
2022-12-25T18:51:26.736Z,10.80
2022-12-25T18:53:57.953Z,11.60
2022-12-25T18:56:24.680Z,12.20
2022-12-25T18:58:51.408Z,14.40
2022-12-25T19:01:23.259Z,17.60
2022-12-25T19:03:51.276Z,15.30
2022-12-25T19:06:20.230Z,14.10
2022-12-25T19:08:46.957Z,12.80
2022-12-25T19:11:13.917Z,12.50
2022-12-25T19:13:40.521Z,15.10
2022-12-25T19:16:07.541Z,13.40
2022-12-25T19:18:34.257Z,12.60
2022-12-25T19:21:03.307Z,11.60
2022-12-25T19:23:30.040Z,12.20
2022-12-25T19:25:56.823Z,13.60
2022-12-25T19:28:25.161Z,13.50
2022-12-25T19:30:55.270Z,12.50
2022-12-25T19:33:22.828Z,11.90
2022-12-25T19:35:50.330Z,11.80
2022-12-25T19:38:17.181Z,13.20
2022-12-25T19:41:00.541Z,11.20
2022-12-25T19:43:28.366Z,10.40
2022-12-25T19:45:55.492Z,10.70
2022-12-25T19:48:22.598Z,11.20
2022-12-25T19:50:50.079Z,10.50
2022-12-25T19:53:17.646Z,11.10
2022-12-25T19:55:45.191Z,11.50
2022-12-25T19:58:12.205Z,11.60
2022-12-25T20:00:40.403Z,13.30
2022-12-25T20:03:09.637Z,12.60
2022-12-25T20:05:36.723Z,12.80
2022-12-25T20:08:03.895Z,12.70
2022-12-25T20:10:30.544Z,12.20
2022-12-25T20:12:58.500Z,11.10
2022-12-25T20:15:25.142Z,12.00
2022-12-25T20:17:51.886Z,13.90
2022-12-25T20:20:18.615Z,14.00
2022-12-25T20:22:45.310Z,13.80
2022-12-25T20:25:14.095Z,13.30
2022-12-25T20:27:40.967Z,13.20
2022-12-25T20:30:08.079Z,13.00
2022-12-25T20:32:34.672Z,11.90
2022-12-25T20:35:01.434Z,11.70
2022-12-25T20:37:28.153Z,12.40
2022-12-25T20:39:54.863Z,13.00
2022-12-25T20:42:21.487Z,11.30
2022-12-25T20:44:48.103Z,12.10
2022-12-25T20:47:14.859Z,13.00
2022-12-25T20:49:41.463Z,12.50
2022-12-25T20:52:08.087Z,13.10
2022-12-25T20:54:34.856Z,13.20
2022-12-25T20:57:01.568Z,13.10
2022-12-25T20:59:33.491Z,13.10
2022-12-25T21:02:03.786Z,13.60
2022-12-25T21:04:30.646Z,12.60
2022-12-25T21:06:57.268Z,12.90
2022-12-25T21:09:24.057Z,13.50
2022-12-25T21:11:50.806Z,13.70
2022-12-25T21:14:17.529Z,12.70
2022-12-25T21:16:45.452Z,12.40
2022-12-25T21:19:14.006Z,13.70
2022-12-25T21:21:43.149Z,13.90
2022-12-25T21:24:10.766Z,12.80
2022-12-25T21:26:40.732Z,12.60
2022-12-25T21:29:09.941Z,12.10
2022-12-25T21:31:57.083Z,12.40
2022-12-25T21:34:23.752Z,12.90
2022-12-25T21:36:50.484Z,13.30
2022-12-25T21:39:17.300Z,15.00
2022-12-25T21:44:28.355Z,13.00
2022-12-25T21:46:55.052Z,11.00
2022-12-25T21:49:40.475Z,10.90
2022-12-25T21:52:07.155Z,11.00
2022-12-25T21:54:34.694Z,9.80
2022-12-25T21:57:01.768Z,9.40
2022-12-25T21:59:28.517Z,9.30
2022-12-25T22:01:55.570Z,8.40
2022-12-25T22:04:23.615Z,8.50
2022-12-25T22:07:09.485Z,9.60
2022-12-25T22:09:36.305Z,9.10
2022-12-25T22:12:22.494Z,9.20
2022-12-25T22:14:59.096Z,9.90
2022-12-25T22:17:47.243Z,10.00
2022-12-25T22:20:37.366Z,10.40
2022-12-25T22:25:31.024Z,9.90
2022-12-25T22:27:57.865Z,8.90
2022-12-25T22:30:27.314Z,8.50
2022-12-25T22:32:54.234Z,8.30
2022-12-25T22:35:21.792Z,8.60
2022-12-25T22:37:49.890Z,8.90
2022-12-25T22:40:19.332Z,8.10
2022-12-25T22:42:46.872Z,8.30
2022-12-25T22:45:14.212Z,8.30
2022-12-25T22:47:41.314Z,10.00
2022-12-25T22:50:08.572Z,9.50
2022-12-25T22:52:36.340Z,10.50
2022-12-25T22:55:04.654Z,11.60
2022-12-25T22:57:31.275Z,12.00
2022-12-25T22:59:58.032Z,12.20
2022-12-25T23:02:24.921Z,10.60
2022-12-25T23:04:52.979Z,11.30
2022-12-25T23:07:19.753Z,10.50
2022-12-25T23:09:46.525Z,10.70
2022-12-25T23:12:33.325Z,12.00
2022-12-25T23:14:59.998Z,10.90
2022-12-25T23:17:45.218Z,9.10
2022-12-25T23:20:33.254Z,9.50
2022-12-25T23:23:19.700Z,9.00
2022-12-25T23:26:05.393Z,10.20
2022-12-25T23:28:50.668Z,11.80
2022-12-25T23:31:19.120Z,12.30
2022-12-25T23:33:45.939Z,12.40
2022-12-25T23:36:12.693Z,12.60
2022-12-25T23:38:39.427Z,12.10
2022-12-25T23:41:06.239Z,10.70
2022-12-25T23:43:32.884Z,9.60
2022-12-25T23:45:59.628Z,9.30
2022-12-25T23:48:26.465Z,11.10
2022-12-25T23:50:54.221Z,10.90
2022-12-25T23:53:20.934Z,11.80
2022-12-25T23:55:55.080Z,11.70
2022-12-25T23:58:22.491Z,11.10
